CDG weather

Charles de Gaulle International Airport
Paris, Île-de-France, France

Public forecast

Using degrees Celsius for public forecast. Weather courtesy of forecast.io.

METAR (pilot weather report)

Retrieved 2017/08/17 03:30 UTC (0 seconds ago):

LFPG 170330Z 17005KT CAVOK 18/14 Q1017 NOSIG

TAF (pilot weather forecast)

Forecast is more than 12 hours old.

Retrieved 2017/08/16 00:22 UTC (1 day ago):

TAF LFPG 162300Z 1700/1806 19005KT CAVOK BECMG 1708/1710 BKN020 PROB30 TEMPO 1712/1715 BKN010 OVC020 PROB40 TEMPO 1716/1719 23015G25KT 4000 RA BKN008 SCT020CB TX25/1717Z TN17/1705Z